Aviation Digital Data Service (ADDS)

Output produced by METARs form (0015 UTC 25 April 2019)
found at http://www.aviationweather.gov/metar/data/
 
Forecast for: SBFL (FLORIANOPOLIS AR, BR)
Text: TAF SBFL 242130Z 2500/2524 12004KT 9999 BKN014 BKN030 TN21/2508Z TX25/2516Z RMK PDV
Forecast period: 0000 UTC 25 April 2019 to 0000 UTC 26 April 2019
Forecast type: FROM: standard forecast or significant change
Winds: from the ESE (120 degrees) at 5 MPH (4 knots; 2.1 m/s)
Visibility: 6 or more miles 10+ km)
Ceiling: 1400 feet AGL
Clouds: broken clouds at 1400 feet AGL
broken clouds at 3000 feet AGL
Weather: no significant weather forecast for this period